Time;durP1;ratioP1;P1;durP2;ratioP2;P2;SDS_P1;SDS_P2;PMS_P1;PMS_P2;Temp;Humidity;BMP_temperature;BMP_pressure;BME280_temperature;BME280_humidity;BME280_pressure;Samples;Min_cycle;Max_cycle;Signal;HPM_P1;HPM_P2
2022/07/24 00:02:15;;;;;;;7.88;6.07;;;;;;;-148.14;100.00;65945.72;5017783;28;20053;-88
2022/07/24 00:04:40;;;;;;;7.93;5.85;;;;;;;-148.14;100.00;65945.72;5032739;28;20403;-87
2022/07/24 00:07:06;;;;;;;6.45;5.43;;;;;;;-148.14;100.00;65945.72;5020377;28;20030;-86
2022/07/24 00:09:32;;;;;;;10.75;6.40;;;;;;;-148.14;100.00;65945.72;5011641;28;20475;-88
2022/07/24 00:11:58;;;;;;;10.75;5.82;;;;;;;-148.14;100.00;65945.72;5029571;28;20547;-88
2022/07/24 00:14:25;;;;;;;9.00;6.40;;;;;;;-148.14;100.00;65945.72;4996823;28;20033;-87
2022/07/24 00:16:51;;;;;;;9.60;6.03;;;;;;;-148.14;100.00;65945.72;5034194;28;20475;-87
2022/07/24 00:19:16;;;;;;;10.15;6.70;;;;;;;-148.14;100.00;65945.72;4998983;28;20112;-86
2022/07/24 00:21:42;;;;;;;11.65;6.80;;;;;;;-148.14;100.00;65945.72;5012275;28;20113;-86
2022/07/24 00:24:08;;;;;;;9.68;6.32;;;;;;;-148.14;100.00;65945.72;5004426;28;20034;-87
2022/07/24 00:26:34;;;;;;;9.63;6.45;;;;;;;-148.14;100.00;65945.72;5030096;28;20030;-86
2022/07/24 00:29:00;;;;;;;12.18;6.93;;;;;;;-148.14;100.00;65945.72;5017404;28;20033;-87
2022/07/24 00:31:26;;;;;;;8.18;6.35;;;;;;;-148.14;100.00;65945.72;5013882;28;20029;-87
2022/07/24 00:33:52;;;;;;;11.88;6.65;;;;;;;-148.14;100.00;65945.72;5033014;28;20026;-88
2022/07/24 00:36:18;;;;;;;7.95;5.57;;;;;;;-148.14;100.00;65945.72;5012377;28;20112;-86
2022/07/24 00:38:43;;;;;;;12.63;6.05;;;;;;;-148.14;100.00;65945.72;4995012;28;20057;-85
2022/07/24 00:41:09;;;;;;;9.38;5.93;;;;;;;-148.14;100.00;65945.72;5022301;28;20049;-86
2022/07/24 00:43:35;;;;;;;10.35;6.47;;;;;;;-148.14;100.00;65945.72;5010761;28;20061;-86
2022/07/24 00:46:00;;;;;;;8.38;5.75;;;;;;;-148.14;100.00;65945.72;5012367;28;20029;-88
2022/07/24 00:48:26;;;;;;;7.88;5.78;;;;;;;-148.14;100.00;65945.72;5008810;28;20040;-86
2022/07/24 00:50:51;;;;;;;8.93;5.43;;;;;;;-148.14;100.00;65945.72;5005430;28;20033;-87
2022/07/24 00:53:17;;;;;;;9.48;6.32;;;;;;;-148.14;100.00;65945.72;5031877;28;20040;-87
2022/07/24 00:55:43;;;;;;;9.65;5.65;;;;;;;-148.14;100.00;65945.72;5016646;28;20468;-88
2022/07/24 00:58:09;;;;;;;10.32;5.57;;;;;;;-148.14;100.00;65945.72;5032435;28;20033;-89
2022/07/24 01:00:34;;;;;;;11.88;5.82;;;;;;;-148.14;100.00;65945.72;5035726;28;20042;-86
2022/07/24 01:03:00;;;;;;;9.05;5.40;;;;;;;-148.14;100.00;65945.72;5012372;28;20049;-86
2022/07/24 01:05:26;;;;;;;7.38;5.50;;;;;;;-148.14;100.00;65945.72;5016917;28;20140;-85
2022/07/24 01:07:52;;;;;;;8.65;6.07;;;;;;;-148.14;100.00;65945.72;5014148;28;20508;-85
2022/07/24 01:10:18;;;;;;;7.22;5.78;;;;;;;-148.14;100.00;65945.72;4999328;28;20030;-86
2022/07/24 01:12:43;;;;;;;9.02;5.65;;;;;;;-148.14;100.00;65945.72;5034289;28;20030;-86
2022/07/24 01:15:10;;;;;;;9.05;5.60;;;;;;;-148.14;100.00;65945.72;5036949;28;20026;-86
2022/07/24 01:17:37;;;;;;;8.82;5.78;;;;;;;-148.14;100.00;65945.72;4998208;28;20072;-86
2022/07/24 01:20:05;;;;;;;11.05;6.20;;;;;;;-148.14;100.00;65945.72;5030509;28;20097;-88
2022/07/24 01:22:31;;;;;;;8.55;6.15;;;;;;;-148.14;100.00;65945.72;5033561;28;20564;-87
2022/07/24 01:24:57;;;;;;;9.25;5.93;;;;;;;-148.14;100.00;65945.72;5044406;28;20450;-86
2022/07/24 01:27:23;;;;;;;11.55;5.85;;;;;;;-148.14;100.00;65945.72;5022440;28;20037;-86
2022/07/24 01:29:50;;;;;;;7.82;5.93;;;;;;;-148.14;100.00;65945.72;5040166;28;20041;-86
2022/07/24 01:32:16;;;;;;;8.02;5.45;;;;;;;-148.14;100.00;65945.72;5006884;28;20439;-87
2022/07/24 01:34:42;;;;;;;9.05;5.53;;;;;;;-148.14;100.00;65945.72;5041210;28;20087;-88
2022/07/24 01:37:09;;;;;;;7.75;6.00;;;;;;;-148.14;100.00;65945.72;5022533;28;20034;-90
2022/07/24 01:39:35;;;;;;;10.98;5.85;;;;;;;-148.14;100.00;65945.72;5006132;28;20128;-85
2022/07/24 01:42:01;;;;;;;8.95;6.07;;;;;;;-148.14;100.00;65945.72;5009159;28;20124;-87
2022/07/24 01:44:27;;;;;;;9.00;6.00;;;;;;;-148.14;100.00;65945.72;4989493;28;20045;-85
2022/07/24 01:46:53;;;;;;;9.30;5.45;;;;;;;-148.14;100.00;65945.72;5021638;28;20041;-86
2022/07/24 01:49:18;;;;;;;11.07;5.55;;;;;;;-148.14;100.00;65945.72;5009558;28;20521;-86
2022/07/24 01:51:44;;;;;;;9.52;5.90;;;;;;;-148.14;100.00;65945.72;5006958;28;20462;-84
2022/07/24 01:54:10;;;;;;;9.75;6.13;;;;;;;-148.14;100.00;65945.72;5007917;28;20109;-86
2022/07/24 01:56:36;;;;;;;10.23;6.43;;;;;;;-148.14;100.00;65945.72;5006796;28;20025;-83
2022/07/24 01:59:01;;;;;;;10.15;6.15;;;;;;;-148.14;100.00;65945.72;5009167;28;20022;-86
2022/07/24 02:01:29;;;;;;;8.68;5.85;;;;;;;-148.14;100.00;65945.72;5021958;28;20583;-85
2022/07/24 02:03:54;;;;;;;9.20;6.15;;;;;;;-148.14;100.00;65945.72;5002540;28;20679;-85
2022/07/24 02:06:20;;;;;;;16.98;6.90;;;;;;;-148.14;100.00;65945.72;5007916;28;20026;-85
2022/07/24 02:08:46;;;;;;;9.15;6.22;;;;;;;-148.14;100.00;65945.72;5004939;28;20025;-84
2022/07/24 02:11:12;;;;;;;8.43;5.90;;;;;;;-148.14;100.00;65945.72;5021153;28;20063;-85
2022/07/24 02:13:38;;;;;;;10.25;6.03;;;;;;;-148.14;100.00;65945.72;4986328;28;20416;-86
2022/07/24 02:16:04;;;;;;;10.65;6.53;;;;;;;-148.14;100.00;65945.72;5023682;28;20096;-86
2022/07/24 02:18:29;;;;;;;8.57;5.95;;;;;;;-148.14;100.00;65945.72;5026298;28;20030;-83
2022/07/24 02:20:55;;;;;;;12.93;6.55;;;;;;;-148.14;100.00;65945.72;5022740;28;20037;-84
2022/07/24 02:23:21;;;;;;;11.10;6.15;;;;;;;-148.14;100.00;65945.72;5022074;28;20032;-83
2022/07/24 02:25:48;;;;;;;11.20;6.70;;;;;;;-148.14;100.00;65945.72;5006274;28;20475;-84
2022/07/24 02:28:14;;;;;;;6.93;5.78;;;;;;;-148.14;100.00;65945.72;4988627;28;20472;-85
2022/07/24 02:30:40;;;;;;;8.98;6.50;;;;;;;-148.14;100.00;65945.72;5019658;28;20029;-87
2022/07/24 02:33:06;;;;;;;11.18;6.72;;;;;;;-148.14;100.00;65945.72;5021687;28;20092;-86
2022/07/24 02:35:32;;;;;;;10.13;6.53;;;;;;;-148.14;100.00;65945.72;5003103;28;20037;-86
2022/07/24 02:37:57;;;;;;;10.57;6.63;;;;;;;-148.14;100.00;65945.72;5020789;28;20041;-85
2022/07/24 02:40:23;;;;;;;9.70;6.10;;;;;;;-148.14;100.00;65945.72;5020547;28;20369;-87
2022/07/24 02:42:48;;;;;;;10.23;7.00;;;;;;;-148.14;100.00;65945.72;5022583;28;20374;-86
2022/07/24 02:45:14;;;;;;;10.57;7.05;;;;;;;-148.14;100.00;65945.72;5022296;28;20037;-85
2022/07/24 02:47:52;;;;;;;17.08;6.82;;;;;;;-148.14;100.00;65945.72;5022215;28;20095;-87
2022/07/24 02:50:19;;;;;;;12.07;7.22;;;;;;;-148.14;100.00;65945.72;4986883;28;20061;-83
2022/07/24 02:52:44;;;;;;;14.35;7.53;;;;;;;-148.14;100.00;65945.72;5022387;28;20112;-85
2022/07/24 02:55:10;;;;;;;8.70;6.63;;;;;;;-148.14;100.00;65945.72;5019857;28;20117;-84
2022/07/24 02:57:35;;;;;;;8.02;7.22;;;;;;;-148.14;100.00;65945.72;5018948;28;20033;-86
2022/07/24 03:00:06;;;;;;;11.25;7.30;;;;;;;-148.14;100.00;65945.72;5019135;28;20089;-85
2022/07/24 03:02:31;;;;;;;9.85;7.05;;;;;;;-148.14;100.00;65945.72;5002409;28;20041;-85
2022/07/24 03:04:57;;;;;;;13.75;7.57;;;;;;;-148.14;100.00;65945.72;5019625;28;20771;-86
2022/07/24 03:07:23;;;;;;;12.32;7.50;;;;;;;-148.14;100.00;65945.72;5019172;28;20025;-86
2022/07/24 03:09:48;;;;;;;12.30;7.03;;;;;;;-148.14;100.00;65945.72;5021561;28;20498;-86
2022/07/24 03:12:14;;;;;;;8.98;6.95;;;;;;;-148.14;100.00;65945.72;4990279;28;20025;-87
2022/07/24 03:14:39;;;;;;;9.60;6.15;;;;;;;-148.14;100.00;65945.72;5002483;28;20479;-85
2022/07/24 03:17:05;;;;;;;7.18;6.40;;;;;;;-148.14;100.00;65945.72;5024971;28;20403;-86
2022/07/24 03:19:31;;;;;;;12.88;6.25;;;;;;;-148.14;100.00;65945.72;5004615;28;20067;-85
2022/07/24 03:21:56;;;;;;;8.02;6.28;;;;;;;-148.14;100.00;65945.72;5021322;28;20041;-84
2022/07/24 03:24:22;;;;;;;13.45;6.57;;;;;;;-148.14;100.00;65945.72;5020817;28;20104;-87
2022/07/24 03:26:48;;;;;;;9.90;5.90;;;;;;;-148.14;100.00;65945.72;5004345;28;20104;-85
2022/07/24 03:29:14;;;;;;;8.68;5.80;;;;;;;-148.14;100.00;65945.72;5021906;28;20068;-85
2022/07/24 03:31:40;;;;;;;6.85;5.95;;;;;;;-148.14;100.00;65945.72;5005407;28;20120;-86
2022/07/24 03:34:06;;;;;;;9.38;6.03;;;;;;;-148.14;100.00;65945.72;5004828;28;20116;-87
2022/07/24 03:36:32;;;;;;;10.10;5.10;;;;;;;-148.14;100.00;65945.72;5026557;28;20021;-86
2022/07/24 03:38:58;;;;;;;7.30;5.40;;;;;;;-148.14;100.00;65945.72;5008181;28;20075;-83
2022/07/24 03:41:24;;;;;;;10.07;5.07;;;;;;;-148.14;100.00;65945.72;5008720;28;20549;-84
2022/07/24 03:43:50;;;;;;;10.85;5.68;;;;;;;-148.14;100.00;65945.72;5026685;28;20120;-85
2022/07/24 03:46:15;;;;;;;9.10;5.57;;;;;;;-148.14;100.00;65945.72;5025503;28;20120;-86
2022/07/24 03:48:41;;;;;;;6.22;4.30;;;;;;;-148.14;100.00;65945.72;5007765;28;20492;-85
2022/07/24 03:51:09;;;;;;;7.05;4.70;;;;;;;-148.14;100.00;65945.72;5024375;28;20713;-86
2022/07/24 03:53:34;;;;;;;9.10;4.75;;;;;;;-148.14;100.00;65945.72;5008463;28;20036;-86
2022/07/24 03:56:04;;;;;;;7.25;4.60;;;;;;;-148.14;100.00;65945.72;5024866;28;20025;-86
2022/07/24 03:58:30;;;;;;;5.10;4.60;;;;;;;-148.14;100.00;65945.72;5005804;28;20025;-87
2022/07/24 04:00:55;;;;;;;5.38;4.60;;;;;;;-148.14;100.00;65945.72;5006359;28;20173;-87
2022/07/24 04:03:21;;;;;;;6.38;4.40;;;;;;;-148.14;100.00;65945.72;5023852;28;20037;-86
2022/07/24 04:05:46;;;;;;;6.40;4.95;;;;;;;-148.14;100.00;65945.72;5006378;28;20339;-88
2022/07/24 04:08:12;;;;;;;5.95;4.43;;;;;;;-148.14;100.00;65945.72;5026500;28;20080;-87
2022/07/24 04:10:38;;;;;;;7.32;4.80;;;;;;;-148.14;100.00;65945.72;5010186;28;20030;-87
2022/07/24 04:13:03;;;;;;;8.15;4.80;;;;;;;-148.14;100.00;65945.72;5006918;28;20058;-88
2022/07/24 04:15:29;;;;;;;5.95;4.38;;;;;;;-148.14;100.00;65945.72;5005056;28;20057;-88
2022/07/24 04:17:54;;;;;;;7.03;4.80;;;;;;;-148.14;100.00;65945.72;4986805;28;20523;-86
2022/07/24 04:20:20;;;;;;;7.28;4.15;;;;;;;-148.14;100.00;65945.72;5022474;28;20022;-86
2022/07/24 04:22:47;;;;;;;5.30;4.00;;;;;;;-148.14;100.00;65945.72;5023525;28;20030;-89
2022/07/24 04:25:13;;;;;;;7.88;4.20;;;;;;;-148.14;100.00;65945.72;5005793;28;20037;-91
2022/07/24 04:27:39;;;;;;;7.30;4.40;;;;;;;-148.14;100.00;65945.72;5023454;28;20439;-86
2022/07/24 04:30:05;;;;;;;5.90;4.25;;;;;;;-148.14;100.00;65945.72;5024238;28;20036;-87
2022/07/24 04:32:31;;;;;;;6.88;4.47;;;;;;;-148.14;100.00;65945.72;5024422;28;20469;-86
2022/07/24 04:34:57;;;;;;;11.50;4.97;;;;;;;-148.14;100.00;65945.72;5026092;28;20032;-88
2022/07/24 04:37:23;;;;;;;7.90;4.53;;;;;;;-148.14;100.00;65945.72;5006666;28;20025;-87
2022/07/24 04:39:49;;;;;;;7.97;4.93;;;;;;;-148.14;100.00;65945.72;5008740;28;20029;-87
2022/07/24 04:42:14;;;;;;;6.65;4.70;;;;;;;-148.14;100.00;65945.72;5026551;28;20381;-87
2022/07/24 04:44:40;;;;;;;5.25;4.68;;;;;;;-148.14;100.00;65945.72;5025652;28;20033;-87
2022/07/24 04:47:06;;;;;;;7.85;4.68;;;;;;;-148.14;100.00;65945.72;5022657;28;20050;-86
2022/07/24 04:49:31;;;;;;;6.43;4.60;;;;;;;-148.14;100.00;65945.72;5021743;28;20472;-88
2022/07/24 04:51:57;;;;;;;6.38;4.57;;;;;;;-148.14;100.00;65945.72;5025891;28;20022;-89
2022/07/24 04:54:23;;;;;;;5.75;4.28;;;;;;;-148.14;100.00;65945.72;5008111;28;20037;-86
2022/07/24 04:56:48;;;;;;;6.70;4.28;;;;;;;-148.14;100.00;65945.72;5025509;28;20076;-89
2022/07/24 04:59:14;;;;;;;6.38;3.97;;;;;;;-148.14;100.00;65945.72;5022959;28;20551;-87
2022/07/24 05:01:40;;;;;;;4.40;3.10;;;;;;;-148.14;100.00;65945.72;5006365;28;20032;-87
2022/07/24 05:04:06;;;;;;;3.67;3.08;;;;;;;-148.14;100.00;65945.72;5022151;28;20041;-87
2022/07/24 05:06:31;;;;;;;3.40;2.70;;;;;;;-148.14;100.00;65945.72;5026321;28;20084;-86
2022/07/24 05:08:57;;;;;;;3.47;2.50;;;;;;;-148.14;100.00;65945.72;5006268;28;20121;-85
2022/07/24 05:11:23;;;;;;;4.13;2.70;;;;;;;-148.14;100.00;65945.72;5024205;28;20036;-86
2022/07/24 05:13:49;;;;;;;2.80;2.55;;;;;;;-148.14;100.00;65945.72;5006436;28;20025;-84
2022/07/24 05:16:14;;;;;;;2.80;2.53;;;;;;;-148.14;100.00;65945.72;5003398;28;20045;-88
2022/07/24 05:18:40;;;;;;;3.97;2.67;;;;;;;-148.14;100.00;65945.72;5006103;28;20029;-88
2022/07/24 05:21:07;;;;;;;5.05;2.70;;;;;;;-148.14;100.00;65945.72;5010699;28;20042;-85
2022/07/24 05:23:33;;;;;;;2.70;2.45;;;;;;;-148.14;100.00;65945.72;5024912;28;20050;-85
2022/07/24 05:25:58;;;;;;;4.60;3.00;;;;;;;-148.14;100.00;65945.72;5004552;28;20120;-86
2022/07/24 05:28:24;;;;;;;3.78;2.92;;;;;;;-148.14;100.00;65945.72;5020704;28;20109;-87
2022/07/24 05:30:50;;;;;;;4.85;3.08;;;;;;;-148.14;100.00;65945.72;5003170;28;20476;-87
2022/07/24 05:33:15;;;;;;;4.45;3.38;;;;;;;-148.14;100.00;65945.72;5022772;28;20041;-88
2022/07/24 05:35:41;;;;;;;4.07;3.28;;;;;;;-148.14;100.00;65945.72;5005685;28;20116;-86
2022/07/24 05:38:08;;;;;;;3.53;3.22;;;;;;;-148.14;100.00;65945.72;5022758;28;20479;-85
2022/07/24 05:40:34;;;;;;;4.65;3.40;;;;;;;-148.14;100.00;65945.72;5008363;28;20038;-87
2022/07/24 05:42:59;;;;;;;4.00;3.13;;;;;;;-148.14;100.00;65945.72;5003715;28;20107;-85
2022/07/24 05:45:25;;;;;;;4.72;3.20;;;;;;;-148.14;100.00;65945.72;4986469;28;20072;-88
2022/07/24 05:47:51;;;;;;;2.67;2.30;;;;;;;-148.14;100.00;65945.72;5020267;28;20026;-86
2022/07/24 05:50:16;;;;;;;2.90;2.65;;;;;;;-148.14;100.00;65945.72;5024934;28;20029;-87
2022/07/24 05:52:43;;;;;;;6.35;3.40;;;;;;;-148.14;100.00;65945.72;5006888;28;20029;-87
2022/07/24 05:55:09;;;;;;;3.60;2.95;;;;;;;-148.14;100.00;65945.72;5026294;28;20102;-88
2022/07/24 05:57:35;;;;;;;3.60;2.75;;;;;;;-148.14;100.00;65945.72;4984782;28;20026;-87
2022/07/24 06:00:01;;;;;;;3.55;2.40;;;;;;;-148.14;100.00;65945.72;5021654;28;20022;-87
2022/07/24 06:02:26;;;;;;;3.33;2.60;;;;;;;-148.14;100.00;65945.72;5020305;28;20038;-86
2022/07/24 06:04:52;;;;;;;2.42;2.08;;;;;;;-148.14;100.00;65945.72;5023907;28;20029;-87
2022/07/24 06:07:18;;;;;;;3.10;2.40;;;;;;;-148.14;100.00;65945.72;5022925;28;20028;-86
2022/07/24 06:09:43;;;;;;;3.45;2.60;;;;;;;-148.14;100.00;65945.72;5024104;28;20029;-86
2022/07/24 06:12:09;;;;;;;2.60;2.40;;;;;;;-148.14;100.00;65945.72;4989586;28;20034;-85
2022/07/24 06:14:36;;;;;;;2.20;2.00;;;;;;;-148.14;100.00;65945.72;5004408;28;20480;-85
2022/07/24 06:17:01;;;;;;;3.28;2.30;;;;;;;-148.14;100.00;65945.72;5020522;28;20055;-89
2022/07/24 06:19:29;;;;;;;2.88;2.13;;;;;;;-148.14;100.00;65945.72;5008963;28;20055;-88
2022/07/24 06:21:55;;;;;;;1.70;1.60;;;;;;;-148.14;100.00;65945.72;5004854;28;20029;-88
2022/07/24 06:24:21;;;;;;;2.67;1.60;;;;;;;-148.14;100.00;65945.72;4989185;28;20060;-88
2022/07/24 06:26:46;;;;;;;2.08;1.88;;;;;;;-148.14;100.00;65945.72;4999084;28;20095;-90
2022/07/24 06:29:12;;;;;;;3.13;1.80;;;;;;;-148.14;100.00;65945.72;5009937;28;20026;-90
2022/07/24 06:31:41;;;;;;;2.15;1.50;;;;;;;-148.14;100.00;65945.72;5022585;28;20030;-90
2022/07/24 06:34:09;;;;;;;3.42;2.05;;;;;;;-148.14;100.00;65945.72;4992016;28;20487;-91
2022/07/24 06:36:35;;;;;;;1.75;1.63;;;;;;;-148.14;100.00;65945.72;5011806;28;20058;-90
2022/07/24 06:39:01;;;;;;;3.60;1.60;;;;;;;-148.14;100.00;65945.72;4994263;28;20084;-85
2022/07/24 06:41:36;;;;;;;2.40;2.00;;;;;;;-148.14;100.00;65945.72;5019442;28;20067;-87
2022/07/24 06:44:36;;;;;;;3.10;1.70;;;;;;;-148.14;100.00;65945.72;5005105;28;20128;-91
2022/07/24 06:47:07;;;;;;;1.50;1.40;;;;;;;-148.14;100.00;65945.72;5008667;28;20467;-88
2022/07/24 06:49:33;;;;;;;1.67;1.58;;;;;;;-148.14;100.00;65945.72;5023333;28;20034;-87
2022/07/24 06:51:58;;;;;;;1.92;1.50;;;;;;;-148.14;100.00;65945.72;5020156;28;20392;-88
2022/07/24 06:54:24;;;;;;;1.50;1.40;;;;;;;-148.14;100.00;65945.72;5011598;28;20045;-90
2022/07/24 06:56:50;;;;;;;2.88;2.10;;;;;;;-148.14;100.00;65945.72;5011255;28;20060;-88
2022/07/24 06:59:16;;;;;;;1.80;1.70;;;;;;;-148.14;100.00;65945.72;5013218;28;20102;-90
2022/07/24 07:01:54;;;;;;;2.45;1.67;;;;;;;-148.14;100.00;65945.72;5025380;28;20117;-86
2022/07/24 07:05:07;;;;;;;2.45;2.25;;;;;;;-148.14;100.00;65945.72;5026942;28;20009;-90
2022/07/24 07:20:23;;;;;;;2.30;2.10;;;;;;;-148.14;100.00;65945.72;5014430;28;20079;-90
2022/07/24 07:22:49;;;;;;;3.10;2.00;;;;;;;-148.14;100.00;65945.72;5021814;28;20099;-86
2022/07/24 07:25:15;;;;;;;3.33;2.17;;;;;;;-148.14;100.00;65945.72;5025188;28;20038;-89
2022/07/24 07:27:43;;;;;;;2.50;2.30;;;;;;;-148.14;100.00;65945.72;5017641;28;20029;-88
2022/07/24 07:30:17;;;;;;;2.13;1.90;;;;;;;-148.14;100.00;65945.72;5006497;28;20099;-90
2022/07/24 07:32:48;;;;;;;3.15;2.05;;;;;;;-148.14;100.00;65945.72;4983815;28;20061;-89
2022/07/24 07:35:43;;;;;;;2.83;1.90;;;;;;;-148.14;100.00;65945.72;4997571;28;20484;-89
2022/07/24 07:38:11;;;;;;;4.35;2.10;;;;;;;-148.14;100.00;65945.72;4998345;28;20072;-87
2022/07/24 07:40:42;;;;;;;2.47;1.80;;;;;;;-148.14;100.00;65945.72;4981228;28;20037;-89
2022/07/24 07:43:11;;;;;;;2.97;1.95;;;;;;;-148.14;100.00;65945.72;5001104;28;20045;-87
2022/07/24 07:45:48;;;;;;;2.10;1.90;;;;;;;-148.14;100.00;65945.72;5018672;28;20112;-89
2022/07/24 07:48:35;;;;;;;3.35;2.08;;;;;;;-148.14;100.00;65945.72;5002508;28;20353;-86
2022/07/24 07:51:09;;;;;;;3.20;2.00;;;;;;;-148.14;100.00;65945.72;5010553;28;20542;-89
2022/07/24 07:53:43;;;;;;;3.00;2.08;;;;;;;-148.14;100.00;65945.72;5022844;28;20026;-87
2022/07/24 08:00:20;;;;;;;2.67;1.95;;;;;;;-148.14;100.00;65945.72;4974909;28;20050;-87
2022/07/24 08:03:23;;;;;;;3.03;2.10;;;;;;;-148.14;100.00;65945.72;4971673;28;20440;-89
2022/07/24 08:06:01;;;;;;;2.33;2.00;;;;;;;-148.14;100.00;65945.72;4963112;28;20108;-87
2022/07/24 08:08:28;;;;;;;3.13;2.05;;;;;;;-148.14;100.00;65945.72;4996195;28;20345;-86
2022/07/24 08:10:55;;;;;;;1.98;1.88;;;;;;;-148.14;100.00;65945.72;5023520;28;20444;-86
2022/07/24 08:13:24;;;;;;;1.95;1.70;;;;;;;-148.14;100.00;65945.72;5021637;28;20034;-84
2022/07/24 08:15:52;;;;;;;2.92;1.90;;;;;;;-148.14;100.00;65945.72;5020989;28;20093;-86
2022/07/24 08:18:18;;;;;;;3.72;1.90;;;;;;;-148.14;100.00;65945.72;5017101;28;20033;-83
2022/07/24 08:20:44;;;;;;;2.67;1.80;;;;;;;-148.14;100.00;65945.72;5013609;28;20033;-83
2022/07/24 08:23:09;;;;;;;2.10;1.70;;;;;;;-148.14;100.00;65945.72;5011993;28;20052;-83
2022/07/24 08:25:35;;;;;;;2.70;2.08;;;;;;;-148.14;100.00;65945.72;5017301;28;20400;-82
2022/07/24 08:28:00;;;;;;;1.65;1.55;;;;;;;-148.14;100.00;65945.72;5019167;28;20037;-83
2022/07/24 08:30:26;;;;;;;2.95;1.70;;;;;;;-148.14;100.00;65945.72;5008354;28;20033;-83
2022/07/24 08:33:23;;;;;;;2.33;1.70;;;;;;;-148.14;100.00;65945.72;5023359;28;20128;-83
2022/07/24 08:35:52;;;;;;;3.13;1.67;;;;;;;-148.14;100.00;65945.72;5022959;28;20044;-83
2022/07/24 08:38:18;;;;;;;1.90;1.70;;;;;;;-148.14;100.00;65945.72;5023598;28;20029;-82
2022/07/24 08:40:45;;;;;;;2.63;2.35;;;;;;;-148.14;100.00;65945.72;5020831;28;20029;-82
2022/07/24 08:43:11;;;;;;;2.22;1.80;;;;;;;-148.14;100.00;65945.72;5022448;28;20041;-82
2022/07/24 08:45:41;;;;;;;2.60;1.58;;;;;;;-148.14;100.00;65945.72;5025426;28;20056;-82
2022/07/24 08:48:10;;;;;;;1.58;1.48;;;;;;;-148.14;100.00;65945.72;5021816;28;20030;-82
2022/07/24 08:50:41;;;;;;;1.60;1.50;;;;;;;-148.14;100.00;65945.72;5021223;28;20109;-83
2022/07/24 08:53:07;;;;;;;1.67;1.58;;;;;;;-148.14;100.00;65945.72;5021683;28;20022;-83
2022/07/24 08:55:33;;;;;;;1.80;1.70;;;;;;;-148.14;100.00;65945.72;5008547;28;20026;-82
2022/07/24 08:58:00;;;;;;;1.73;1.42;;;;;;;-148.14;100.00;65945.72;5022689;28;20125;-83
2022/07/24 09:00:28;;;;;;;1.63;1.52;;;;;;;-148.14;100.00;65945.72;5025365;28;20049;-83
2022/07/24 09:02:57;;;;;;;1.70;1.60;;;;;;;-148.14;100.00;65945.72;5003764;28;20029;-84
2022/07/24 09:05:23;;;;;;;1.70;1.60;;;;;;;-148.14;100.00;65945.72;5021116;28;20033;-84
2022/07/24 09:08:09;;;;;;;2.58;1.90;;;;;;;-148.14;100.00;65945.72;5024373;28;20029;-85
2022/07/24 09:10:35;;;;;;;2.20;2.00;;;;;;;-148.14;100.00;65945.72;5014718;28;20476;-85
2022/07/24 09:13:15;;;;;;;2.85;1.90;;;;;;;-148.14;100.00;65945.72;5014035;28;20077;-84
2022/07/24 09:15:49;;;;;;;1.80;1.70;;;;;;;-148.14;100.00;65945.72;5007171;28;20476;-84
2022/07/24 09:18:41;;;;;;;2.30;1.95;;;;;;;-148.14;100.00;65945.72;5019144;28;20030;-82
2022/07/24 09:21:15;;;;;;;1.90;1.75;;;;;;;-148.14;100.00;65945.72;5021147;28;20041;-84
2022/07/24 09:23:42;;;;;;;2.75;1.92;;;;;;;-148.14;100.00;65945.72;5022474;28;20045;-87
2022/07/24 09:26:07;;;;;;;5.38;2.40;;;;;;;-148.14;100.00;65945.72;5026521;28;20044;-87
2022/07/24 09:28:50;;;;;;;3.15;1.90;;;;;;;-148.14;100.00;65945.72;5008883;28;20053;-86
2022/07/24 09:31:16;;;;;;;7.40;1.90;;;;;;;-148.14;100.00;65945.72;5021549;28;20379;-88
2022/07/24 09:33:42;;;;;;;2.15;1.75;;;;;;;-148.14;100.00;65945.72;5009967;28;20266;-87
2022/07/24 09:36:15;;;;;;;3.00;1.65;;;;;;;-148.14;100.00;65945.72;5007280;28;20040;-87
2022/07/24 09:38:48;;;;;;;2.30;1.65;;;;;;;-148.14;100.00;65945.72;5013554;28;20492;-87
2022/07/24 09:41:19;;;;;;;1.70;1.60;;;;;;;-148.14;100.00;65945.72;5008502;28;20077;-89
2022/07/24 09:43:45;;;;;;;2.25;1.50;;;;;;;-148.14;100.00;65945.72;5026212;28;20080;-87
2022/07/24 09:46:12;;;;;;;1.75;1.50;;;;;;;-148.14;100.00;65945.72;5029860;28;20037;-87
2022/07/24 09:48:40;;;;;;;2.25;1.70;;;;;;;-148.14;100.00;65945.72;5007254;28;20030;-88
2022/07/24 09:51:13;;;;;;;2.58;1.50;;;;;;;-148.14;100.00;65945.72;5021136;28;20036;-86
2022/07/24 09:53:41;;;;;;;2.13;1.77;;;;;;;-148.14;100.00;65945.72;5008723;28;20041;-89
2022/07/24 09:56:15;;;;;;;1.73;1.63;;;;;;;-148.14;100.00;65945.72;5004428;28;20022;-87
2022/07/24 09:58:55;;;;;;;2.70;1.63;;;;;;;-148.14;100.00;65945.72;5023406;28;20391;-87
2022/07/24 10:01:24;;;;;;;1.60;1.50;;;;;;;-148.14;100.00;65945.72;5023336;28;20030;-86
2022/07/24 10:03:51;;;;;;;2.17;1.65;;;;;;;-148.14;100.00;65945.72;5025090;28;20399;-86
2022/07/24 10:06:21;;;;;;;2.45;1.60;;;;;;;-148.14;100.00;65945.72;5023473;28;20025;-86
2022/07/24 10:08:52;;;;;;;2.45;1.65;;;;;;;-148.14;100.00;65945.72;4990692;28;20037;-88
2022/07/24 10:11:19;;;;;;;1.85;1.73;;;;;;;-148.14;100.00;65945.72;4993556;28;20037;-86
2022/07/24 10:13:45;;;;;;;3.22;1.80;;;;;;;-148.14;100.00;65945.72;5027877;28;20357;-88
2022/07/24 10:16:13;;;;;;;2.65;1.95;;;;;;;-148.14;100.00;65945.72;5009616;28;20041;-88
2022/07/24 10:18:59;;;;;;;1.83;1.52;;;;;;;-148.14;100.00;65945.72;4990953;28;20042;-87
2022/07/24 10:21:25;;;;;;;1.85;1.75;;;;;;;-148.14;100.00;65945.72;5006409;28;20044;-87
2022/07/24 10:24:03;;;;;;;2.58;1.40;;;;;;;-148.14;100.00;65945.72;5006725;28;20033;-86
2022/07/24 10:26:29;;;;;;;1.77;1.67;;;;;;;-148.14;100.00;65945.72;5001608;28;20033;-86
2022/07/24 10:29:05;;;;;;;2.13;1.80;;;;;;;-148.14;100.00;65945.72;5010644;28;20026;-88
2022/07/24 10:31:30;;;;;;;1.88;1.77;;;;;;;-148.14;100.00;65945.72;4992539;28;20365;-87
2022/07/24 10:34:01;;;;;;;1.70;1.60;;;;;;;-148.14;100.00;65945.72;5021139;28;20147;-87
2022/07/24 10:36:51;;;;;;;1.77;1.67;;;;;;;-148.14;100.00;65945.72;5026565;28;20034;-86
2022/07/24 10:39:31;;;;;;;1.70;1.60;;;;;;;-148.14;100.00;65945.72;5004014;28;20136;-87
2022/07/24 10:42:05;;;;;;;3.25;1.90;;;;;;;-148.14;100.00;65945.72;5021459;28;20039;-87
2022/07/24 10:44:34;;;;;;;1.95;1.85;;;;;;;-148.14;100.00;65945.72;4990758;28;20046;-87
2022/07/24 10:47:09;;;;;;;2.15;1.95;;;;;;;-148.14;100.00;65945.72;5004187;28;20034;-89
2022/07/24 10:49:38;;;;;;;1.98;1.73;;;;;;;-148.14;100.00;65945.72;4991132;28;20068;-90
2022/07/24 10:52:48;;;;;;;3.08;1.95;;;;;;;-148.14;100.00;65945.72;5010191;28;20072;-88
2022/07/24 10:55:35;;;;;;;2.58;1.80;;;;;;;-148.14;100.00;65945.72;5007574;28;20500;-83
2022/07/24 10:58:14;;;;;;;2.92;1.80;;;;;;;-148.14;100.00;65945.72;5018041;28;20079;-84
2022/07/24 11:00:48;;;;;;;1.90;1.80;;;;;;;-148.14;100.00;65945.72;4983917;28;20030;-85
2022/07/24 11:03:22;;;;;;;2.25;2.05;;;;;;;-148.14;100.00;65945.72;5003089;28;20396;-86
2022/07/24 11:06:05;;;;;;;4.70;1.92;;;;;;;-148.14;100.00;65945.72;5002324;28;20044;-86
2022/07/24 11:08:36;;;;;;;2.30;2.08;;;;;;;-148.14;100.00;65945.72;5021172;28;20475;-85
2022/07/24 11:11:11;;;;;;;2.20;1.92;;;;;;;-148.14;100.00;65945.72;4989317;28;20037;-86
2022/07/24 11:13:36;;;;;;;1.65;1.55;;;;;;;-148.14;100.00;65945.72;4998644;28;20049;-86
2022/07/24 11:16:15;;;;;;;1.83;1.73;;;;;;;-148.14;100.00;65945.72;4996047;28;20036;-83
2022/07/24 11:18:49;;;;;;;3.80;2.08;;;;;;;-148.14;100.00;65945.72;5022570;28;20029;-83
2022/07/24 11:22:01;;;;;;;3.10;2.00;;;;;;;-148.14;100.00;65945.72;5001871;28;20068;-84
2022/07/24 11:24:30;;;;;;;3.45;1.92;;;;;;;-148.14;100.00;65945.72;4931840;29;20439;-84
2022/07/24 11:27:03;;;;;;;3.85;2.10;;;;;;;-148.14;100.00;65945.72;4997690;28;20427;-83
2022/07/24 11:29:32;;;;;;;2.30;2.00;;;;;;;-148.14;100.00;65945.72;5001065;28;20048;-82
2022/07/24 11:32:10;;;;;;;2.38;2.17;;;;;;;-148.14;100.00;65945.72;5001006;28;20034;-83